SWA4104 KSFO-KSAN
Flight info
| Callsign | SWA4104 |
|---|---|
| Flight time | 1h 35m |
| Altitude | 35000 |
| Route | WESLA5 YYUNG LAX COMIX2 |
| Aircraft | B38M/M-SDE1FGHILORVWXY/HB1 |
Departure
| Time | 2026-05-04 01:29 |
|---|---|
| Airport | San Francisco International Airport (KSFO) |
Arrival
| Time | 2026-05-04 03:04 |
|---|---|
| Airport | San Diego International Airport (KSAN) |
| Time | Latitude | Longitude | Altitude | Speed | Heading |
|---|---|---|---|---|---|
| 2026-05-04 00:19 | 37.61658 | -122.38257 | 21 ft | 0 kts | 359° |
| 2026-05-04 01:12 | 37.61653 | -122.38257 | 24 ft | 2 kts | 359° |
| 2026-05-04 01:13 | 37.61634 | -122.38259 | 21 ft | 3 kts | 18° |
| 2026-05-04 01:13 | 37.61616 | -122.38270 | 23 ft | 3 kts | 31° |
| 2026-05-04 01:13 | 37.61606 | -122.38277 | 21 ft | 0 kts | 32° |
| 2026-05-04 01:22 | 37.61609 | -122.38274 | 22 ft | 3 kts | 39° |
| 2026-05-04 01:22 | 37.61615 | -122.38263 | 24 ft | 0 kts | 68° |
| 2026-05-04 01:22 | 37.61614 | -122.38240 | 23 ft | 7 kts | 109° |
| 2026-05-04 01:22 | 37.61571 | -122.38168 | 25 ft | 12 kts | 120° |
| 2026-05-04 01:23 | 37.61564 | -122.38152 | 25 ft | 2 kts | 118° |
| 2026-05-04 01:23 | 37.61544 | -122.38101 | 25 ft | 7 kts | 112° |
| 2026-05-04 01:23 | 37.61559 | -122.38036 | 23 ft | 9 kts | 36° |
| 2026-05-04 01:23 | 37.61624 | -122.37991 | 23 ft | 13 kts | 27° |
| 2026-05-04 01:24 | 37.61706 | -122.37934 | 23 ft | 11 kts | 37° |
| 2026-05-04 01:24 | 37.61771 | -122.37860 | 25 ft | 14 kts | 44° |
| 2026-05-04 01:24 | 37.61798 | -122.37768 | 23 ft | 11 kts | 106° |
| 2026-05-04 01:24 | 37.61761 | -122.37648 | 23 ft | 22 kts | 111° |
| 2026-05-04 01:25 | 37.61681 | -122.37422 | 27 ft | 33 kts | 117° |
| 2026-05-04 01:25 | 37.61572 | -122.37159 | 25 ft | 35 kts | 117° |
| 2026-05-04 01:25 | 37.61445 | -122.36894 | 26 ft | 36 kts | 133° |
| 2026-05-04 01:25 | 37.61334 | -122.36708 | 27 ft | 27 kts | 116° |
| 2026-05-04 01:26 | 37.61245 | -122.36493 | 23 ft | 29 kts | 118° |
| 2026-05-04 01:26 | 37.61147 | -122.36260 | 23 ft | 33 kts | 118° |
| 2026-05-04 01:26 | 37.61059 | -122.36054 | 25 ft | 16 kts | 118° |
| 2026-05-04 01:26 | 37.61065 | -122.35938 | 25 ft | 0 kts | 54° |
| 2026-05-04 01:27 | 37.61068 | -122.35934 | 24 ft | 2 kts | 51° |
| 2026-05-04 01:27 | 37.61131 | -122.35884 | 23 ft | 14 kts | 16° |
| 2026-05-04 01:27 | 37.61213 | -122.35938 | 24 ft | 1 kts | 299° |
| 2026-05-04 01:28 | 37.61220 | -122.35955 | 23 ft | 15 kts | 299° |
| 2026-05-04 01:28 | 37.61387 | -122.36353 | 25 ft | 86 kts | 297° |
| 2026-05-04 01:28 | 37.61762 | -122.37249 | 25 ft | 142 kts | 298° |
| 2026-05-04 01:29 | 37.62305 | -122.38503 | 149 ft | 173 kts | 296° |
| 2026-05-04 01:29 | 37.62817 | -122.39850 | 886 ft | 171 kts | 290° |
| 2026-05-04 01:29 | 37.63380 | -122.41257 | 1398 ft | 190 kts | 296° |
| 2026-05-04 01:29 | 37.64041 | -122.42784 | 1991 ft | 205 kts | 296° |
| 2026-05-04 01:30 | 37.64755 | -122.44389 | 2698 ft | 219 kts | 297° |
| 2026-05-04 01:30 | 37.65547 | -122.46140 | 3308 ft | 236 kts | 297° |
| 2026-05-04 01:30 | 37.66371 | -122.47939 | 4198 ft | 238 kts | 296° |
| 2026-05-04 01:30 | 37.66924 | -122.49967 | 4804 ft | 254 kts | 273° |
| 2026-05-04 01:31 | 37.66564 | -122.52178 | 5327 ft | 264 kts | 238° |
| 2026-05-04 01:31 | 37.65336 | -122.53849 | 6208 ft | 263 kts | 210° |
| 2026-05-04 01:31 | 37.63600 | -122.54544 | 6961 ft | 265 kts | 180° |
| 2026-05-04 01:31 | 37.61818 | -122.54033 | 7799 ft | 267 kts | 153° |
| 2026-05-04 01:32 | 37.60120 | -122.53013 | 8606 ft | 272 kts | 158° |
| 2026-05-04 01:32 | 37.58340 | -122.52144 | 9444 ft | 275 kts | 158° |
| 2026-05-04 01:32 | 37.56570 | -122.51269 | 10241 ft | 280 kts | 158° |
| 2026-05-04 01:32 | 37.54709 | -122.50345 | 10650 ft | 297 kts | 158° |
| 2026-05-04 01:33 | 37.52731 | -122.49356 | 11099 ft | 312 kts | 158° |
| 2026-05-04 01:33 | 37.50683 | -122.48320 | 11684 ft | 321 kts | 158° |
| 2026-05-04 01:33 | 37.48492 | -122.47732 | 12467 ft | 326 kts | 179° |
| 2026-05-04 01:33 | 37.46222 | -122.48035 | 13245 ft | 332 kts | 186° |
| 2026-05-04 01:34 | 37.43911 | -122.48433 | 13996 ft | 337 kts | 186° |
| 2026-05-04 01:34 | 37.41575 | -122.48850 | 14755 ft | 340 kts | 187° |
| 2026-05-04 01:34 | 37.39223 | -122.49280 | 15525 ft | 344 kts | 187° |
| 2026-05-04 01:34 | 37.36841 | -122.49720 | 16296 ft | 347 kts | 187° |
| 2026-05-04 01:35 | 37.34433 | -122.50166 | 17035 ft | 351 kts | 187° |
| 2026-05-04 01:35 | 37.32003 | -122.50617 | 17762 ft | 355 kts | 187° |
| 2026-05-04 01:35 | 37.29539 | -122.51075 | 18445 ft | 359 kts | 187° |
| 2026-05-04 01:35 | 37.27055 | -122.51535 | 19066 ft | 363 kts | 187° |
| 2026-05-04 01:36 | 37.24551 | -122.51999 | 19686 ft | 366 kts | 187° |
| 2026-05-04 01:36 | 37.22009 | -122.52398 | 20276 ft | 369 kts | 180° |
| 2026-05-04 01:36 | 37.19473 | -122.51984 | 20878 ft | 370 kts | 162° |
| 2026-05-04 01:36 | 37.17124 | -122.50744 | 21436 ft | 373 kts | 154° |
| 2026-05-04 01:37 | 37.14775 | -122.49328 | 22017 ft | 376 kts | 154° |
| 2026-05-04 01:37 | 37.12398 | -122.47920 | 22598 ft | 380 kts | 155° |
| 2026-05-04 01:37 | 37.09990 | -122.46508 | 23157 ft | 384 kts | 155° |
| 2026-05-04 01:37 | 37.07559 | -122.45088 | 23689 ft | 387 kts | 155° |
| 2026-05-04 01:38 | 37.05106 | -122.43658 | 24131 ft | 391 kts | 155° |
| 2026-05-04 01:38 | 37.02633 | -122.42219 | 24583 ft | 393 kts | 155° |
| 2026-05-04 01:38 | 37.00136 | -122.40765 | 25032 ft | 397 kts | 155° |
| 2026-05-04 01:38 | 36.97623 | -122.39304 | 25475 ft | 400 kts | 155° |
| 2026-05-04 01:39 | 36.95087 | -122.37831 | 25902 ft | 403 kts | 156° |
| 2026-05-04 01:39 | 36.92531 | -122.36347 | 26328 ft | 406 kts | 156° |
| 2026-05-04 01:39 | 36.89959 | -122.34855 | 26746 ft | 409 kts | 156° |
| 2026-05-04 01:39 | 36.87369 | -122.33353 | 27159 ft | 412 kts | 156° |
| 2026-05-04 01:40 | 36.84758 | -122.31841 | 27560 ft | 415 kts | 157° |
| 2026-05-04 01:40 | 36.82130 | -122.30320 | 27956 ft | 418 kts | 157° |
| 2026-05-04 01:40 | 36.79480 | -122.28787 | 28348 ft | 421 kts | 158° |
| 2026-05-04 01:40 | 36.76807 | -122.27242 | 28727 ft | 424 kts | 158° |
| 2026-05-04 01:41 | 36.74154 | -122.25710 | 29095 ft | 427 kts | 159° |
| 2026-05-04 01:41 | 36.71445 | -122.24146 | 29461 ft | 430 kts | 159° |
| 2026-05-04 01:41 | 36.68717 | -122.22573 | 29832 ft | 433 kts | 159° |
| 2026-05-04 01:41 | 36.65986 | -122.20964 | 30176 ft | 438 kts | 156° |
| 2026-05-04 01:42 | 36.63423 | -122.18856 | 30485 ft | 447 kts | 145° |
| 2026-05-04 01:42 | 36.61232 | -122.16047 | 30815 ft | 457 kts | 134° |
| 2026-05-04 01:42 | 36.59209 | -122.12982 | 31050 ft | 460 kts | 136° |
| 2026-05-04 01:42 | 36.57141 | -122.09931 | 31286 ft | 463 kts | 136° |
| 2026-05-04 01:43 | 36.55049 | -122.06861 | 31565 ft | 466 kts | 137° |
| 2026-05-04 01:43 | 36.52941 | -122.03771 | 31814 ft | 470 kts | 137° |
| 2026-05-04 01:43 | 36.50817 | -122.00662 | 32064 ft | 473 kts | 138° |
| 2026-05-04 01:43 | 36.48685 | -121.97543 | 32303 ft | 476 kts | 138° |
| 2026-05-04 01:44 | 36.46535 | -121.94399 | 32560 ft | 479 kts | 139° |
| 2026-05-04 01:44 | 36.44394 | -121.91273 | 32818 ft | 482 kts | 139° |
| 2026-05-04 01:44 | 36.42220 | -121.88102 | 33075 ft | 485 kts | 139° |
| 2026-05-04 01:44 | 36.40022 | -121.84898 | 33342 ft | 488 kts | 140° |
| 2026-05-04 01:45 | 36.37819 | -121.81689 | 33617 ft | 490 kts | 140° |
| 2026-05-04 01:45 | 36.35600 | -121.78459 | 33964 ft | 490 kts | 141° |
| 2026-05-04 01:45 | 36.31175 | -121.72027 | 34602 ft | 490 kts | 141° |
| 2026-05-04 01:46 | 36.28960 | -121.68811 | 34897 ft | 490 kts | 140° |
| 2026-05-04 01:46 | 36.26739 | -121.65594 | 35037 ft | 491 kts | 141° |
| 2026-05-04 01:46 | 36.22336 | -121.59222 | 35017 ft | 488 kts | 141° |
| 2026-05-04 01:47 | 36.17913 | -121.52833 | 35027 ft | 489 kts | 141° |
| 2026-05-04 01:47 | 36.13480 | -121.46441 | 35005 ft | 489 kts | 142° |
| 2026-05-04 01:48 | 36.09792 | -121.41134 | 35005 ft | 489 kts | 142° |
| 2026-05-04 01:48 | 36.05344 | -121.34742 | 34993 ft | 489 kts | 142° |
| 2026-05-04 01:49 | 36.00898 | -121.28369 | 35014 ft | 490 kts | 142° |
| 2026-05-04 01:49 | 35.96473 | -121.22033 | 35002 ft | 490 kts | 142° |
| 2026-05-04 01:50 | 35.92022 | -121.15676 | 35006 ft | 490 kts | 142° |
| 2026-05-04 01:50 | 35.87561 | -121.09315 | 34997 ft | 490 kts | 143° |
| 2026-05-04 01:51 | 35.83102 | -121.02968 | 35007 ft | 489 kts | 143° |
| 2026-05-04 01:51 | 35.78645 | -120.96636 | 35025 ft | 490 kts | 143° |
| 2026-05-04 01:52 | 35.74171 | -120.90292 | 35025 ft | 490 kts | 143° |
| 2026-05-04 01:52 | 35.69693 | -120.83956 | 35022 ft | 491 kts | 143° |
| 2026-05-04 01:53 | 35.65238 | -120.77662 | 35054 ft | 492 kts | 143° |
| 2026-05-04 01:53 | 35.60747 | -120.71329 | 35038 ft | 491 kts | 143° |
| 2026-05-04 01:54 | 35.56245 | -120.64993 | 35032 ft | 491 kts | 143° |
| 2026-05-04 01:54 | 35.51750 | -120.58678 | 35023 ft | 491 kts | 143° |
| 2026-05-04 01:55 | 35.47245 | -120.52362 | 35022 ft | 491 kts | 143° |
| 2026-05-04 01:55 | 35.42735 | -120.46048 | 35009 ft | 492 kts | 143° |
| 2026-05-04 01:56 | 35.38220 | -120.39741 | 35008 ft | 492 kts | 143° |
| 2026-05-04 01:56 | 35.33696 | -120.33433 | 35013 ft | 492 kts | 143° |
| 2026-05-04 01:57 | 35.29206 | -120.27184 | 35006 ft | 493 kts | 143° |
| 2026-05-04 01:57 | 35.24677 | -120.20891 | 35007 ft | 493 kts | 143° |
| 2026-05-04 01:58 | 35.20140 | -120.14600 | 35001 ft | 493 kts | 143° |
| 2026-05-04 01:58 | 35.15594 | -120.08307 | 34998 ft | 493 kts | 143° |
| 2026-05-04 01:59 | 35.11050 | -120.02028 | 34989 ft | 494 kts | 143° |
| 2026-05-04 01:59 | 35.06486 | -119.95734 | 34983 ft | 495 kts | 144° |
| 2026-05-04 02:00 | 35.01920 | -119.89447 | 34979 ft | 495 kts | 144° |
| 2026-05-04 02:00 | 34.97344 | -119.83160 | 34968 ft | 496 kts | 144° |
| 2026-05-04 02:01 | 34.92758 | -119.76869 | 34971 ft | 497 kts | 144° |
| 2026-05-04 02:01 | 34.88188 | -119.70611 | 34956 ft | 497 kts | 145° |
| 2026-05-04 02:02 | 34.83547 | -119.64269 | 34961 ft | 499 kts | 145° |
| 2026-05-04 02:02 | 34.78958 | -119.58010 | 34952 ft | 499 kts | 145° |
| 2026-05-04 02:03 | 34.74309 | -119.51682 | 34945 ft | 507 kts | 145° |
| 2026-05-04 02:03 | 34.69552 | -119.45217 | 34952 ft | 516 kts | 145° |
| 2026-05-04 02:04 | 34.64759 | -119.38713 | 34956 ft | 517 kts | 146° |
| 2026-05-04 02:04 | 34.59956 | -119.32209 | 34958 ft | 518 kts | 146° |
| 2026-05-04 02:05 | 34.55170 | -119.25739 | 34961 ft | 512 kts | 146° |
| 2026-05-04 02:05 | 34.50406 | -119.19313 | 34972 ft | 513 kts | 146° |
| 2026-05-04 02:06 | 34.45623 | -119.12872 | 34974 ft | 514 kts | 147° |
| 2026-05-04 02:06 | 34.40831 | -119.06430 | 34993 ft | 515 kts | 147° |
| 2026-05-04 02:07 | 34.36055 | -119.00025 | 34994 ft | 516 kts | 147° |
| 2026-05-04 02:07 | 34.31240 | -118.93577 | 35009 ft | 518 kts | 147° |
| 2026-05-04 02:08 | 34.26406 | -118.87115 | 34999 ft | 518 kts | 147° |
| 2026-05-04 02:08 | 34.21900 | -118.81102 | 34994 ft | 519 kts | 147° |
| 2026-05-04 02:09 | 34.17044 | -118.74634 | 34981 ft | 520 kts | 147° |
| 2026-05-04 02:09 | 34.12185 | -118.68175 | 34975 ft | 520 kts | 147° |
| 2026-05-04 02:10 | 34.07305 | -118.61700 | 35011 ft | 521 kts | 147° |
| 2026-05-04 02:10 | 34.02692 | -118.55585 | 35009 ft | 515 kts | 148° |
| 2026-05-04 02:11 | 33.97877 | -118.49223 | 35014 ft | 514 kts | 148° |
| 2026-05-04 02:11 | 33.93070 | -118.42901 | 35009 ft | 514 kts | 148° |
| 2026-05-04 02:12 | 33.88194 | -118.36580 | 35011 ft | 516 kts | 148° |
| 2026-05-04 02:12 | 33.83259 | -118.30185 | 35001 ft | 525 kts | 148° |
| 2026-05-04 02:13 | 33.80805 | -118.26997 | 34501 ft | 513 kts | 148° |
| 2026-05-04 02:13 | 33.78364 | -118.23844 | 33290 ft | 516 kts | 147° |
| 2026-05-04 02:13 | 33.75938 | -118.20656 | 32131 ft | 516 kts | 145° |
| 2026-05-04 02:13 | 33.73520 | -118.17471 | 30938 ft | 516 kts | 144° |
| 2026-05-04 02:14 | 33.71094 | -118.14285 | 29747 ft | 514 kts | 143° |
| 2026-05-04 02:14 | 33.68682 | -118.11124 | 28347 ft | 512 kts | 142° |
| 2026-05-04 02:14 | 33.66308 | -118.08014 | 26967 ft | 510 kts | 142° |
| 2026-05-04 02:14 | 33.63909 | -118.04873 | 25884 ft | 503 kts | 141° |
| 2026-05-04 02:15 | 33.61612 | -118.01863 | 25749 ft | 476 kts | 142° |
| 2026-05-04 02:15 | 33.59386 | -117.98961 | 25290 ft | 470 kts | 142° |
| 2026-05-04 02:15 | 33.57170 | -117.96072 | 24665 ft | 469 kts | 141° |
| 2026-05-04 02:15 | 33.54939 | -117.93241 | 24079 ft | 462 kts | 144° |
| 2026-05-04 02:16 | 33.52621 | -117.90564 | 23482 ft | 460 kts | 144° |
| 2026-05-04 02:16 | 33.50340 | -117.87907 | 22904 ft | 456 kts | 144° |
| 2026-05-04 02:16 | 33.48115 | -117.85302 | 22385 ft | 450 kts | 144° |
| 2026-05-04 02:16 | 33.45897 | -117.82702 | 21884 ft | 436 kts | 144° |
| 2026-05-04 02:17 | 33.43738 | -117.80253 | 21384 ft | 417 kts | 147° |
| 2026-05-04 02:17 | 33.41589 | -117.77974 | 20909 ft | 404 kts | 147° |
| 2026-05-04 02:17 | 33.39531 | -117.75777 | 20491 ft | 391 kts | 148° |
| 2026-05-04 02:17 | 33.37534 | -117.73638 | 20068 ft | 379 kts | 148° |
| 2026-05-04 02:18 | 33.35571 | -117.71537 | 19628 ft | 383 kts | 148° |
| 2026-05-04 02:18 | 33.33594 | -117.69419 | 19192 ft | 388 kts | 147° |
| 2026-05-04 02:18 | 33.31570 | -117.67249 | 18780 ft | 390 kts | 147° |
| 2026-05-04 02:18 | 33.29555 | -117.65091 | 18366 ft | 388 kts | 147° |
| 2026-05-04 02:19 | 33.27551 | -117.62945 | 17895 ft | 385 kts | 147° |
| 2026-05-04 02:19 | 33.25562 | -117.60820 | 17454 ft | 381 kts | 147° |
| 2026-05-04 02:19 | 33.23585 | -117.58736 | 16993 ft | 376 kts | 146° |
| 2026-05-04 02:19 | 33.21632 | -117.56679 | 16598 ft | 374 kts | 146° |
| 2026-05-04 02:20 | 33.19689 | -117.54632 | 16186 ft | 372 kts | 146° |
| 2026-05-04 02:20 | 33.17757 | -117.52597 | 15778 ft | 369 kts | 145° |
| 2026-05-04 02:20 | 33.15837 | -117.50577 | 15371 ft | 366 kts | 145° |
| 2026-05-04 02:20 | 33.13922 | -117.48582 | 14972 ft | 361 kts | 147° |
| 2026-05-04 02:21 | 33.11886 | -117.46867 | 14548 ft | 357 kts | 150° |
| 2026-05-04 02:21 | 33.09863 | -117.45183 | 14218 ft | 352 kts | 150° |
| 2026-05-04 02:21 | 33.07868 | -117.43504 | 13835 ft | 347 kts | 149° |
| 2026-05-04 02:21 | 33.05938 | -117.41871 | 13410 ft | 334 kts | 149° |
| 2026-05-04 02:22 | 33.04073 | -117.40303 | 12969 ft | 322 kts | 150° |
| 2026-05-04 02:22 | 33.02286 | -117.38806 | 12574 ft | 311 kts | 150° |
| 2026-05-04 02:22 | 33.00546 | -117.37349 | 12225 ft | 300 kts | 150° |
| 2026-05-04 02:22 | 32.98872 | -117.35947 | 11896 ft | 289 kts | 150° |
| 2026-05-04 02:23 | 32.97271 | -117.34605 | 11556 ft | 280 kts | 150° |
| 2026-05-04 02:23 | 32.95684 | -117.33277 | 11239 ft | 278 kts | 150° |
| 2026-05-04 02:23 | 32.94096 | -117.31949 | 10910 ft | 278 kts | 150° |
| 2026-05-04 02:23 | 32.92516 | -117.30627 | 10583 ft | 278 kts | 150° |
| 2026-05-04 02:24 | 32.90931 | -117.29306 | 10224 ft | 279 kts | 150° |
| 2026-05-04 02:24 | 32.89340 | -117.27982 | 9880 ft | 279 kts | 150° |
| 2026-05-04 02:24 | 32.87743 | -117.26655 | 9531 ft | 279 kts | 150° |
| 2026-05-04 02:24 | 32.86152 | -117.25332 | 9176 ft | 279 kts | 150° |
| 2026-05-04 02:25 | 32.84567 | -117.24015 | 8845 ft | 278 kts | 149° |
| 2026-05-04 02:25 | 32.82987 | -117.22703 | 8539 ft | 276 kts | 149° |
| 2026-05-04 02:25 | 32.81626 | -117.21351 | 8222 ft | 281 kts | 133° |
| 2026-05-04 02:25 | 32.80739 | -117.19255 | 7859 ft | 288 kts | 108° |
| 2026-05-04 02:26 | 32.80239 | -117.16952 | 7545 ft | 288 kts | 108° |
| 2026-05-04 02:26 | 32.79724 | -117.14654 | 7205 ft | 288 kts | 108° |
| 2026-05-04 02:26 | 32.79234 | -117.12349 | 6878 ft | 288 kts | 104° |
| 2026-05-04 02:26 | 32.78873 | -117.10044 | 6561 ft | 288 kts | 102° |
| 2026-05-04 02:27 | 32.78540 | -117.07764 | 6421 ft | 273 kts | 102° |
| 2026-05-04 02:27 | 32.78229 | -117.05578 | 6264 ft | 265 kts | 102° |
| 2026-05-04 02:27 | 32.77919 | -117.03442 | 6096 ft | 259 kts | 102° |
| 2026-05-04 02:27 | 32.77619 | -117.01375 | 6034 ft | 248 kts | 102° |
| 2026-05-04 02:28 | 32.77337 | -116.99379 | 6036 ft | 244 kts | 102° |
| 2026-05-04 02:28 | 32.77055 | -116.97384 | 5965 ft | 245 kts | 102° |
| 2026-05-04 02:28 | 32.76763 | -116.95393 | 5700 ft | 244 kts | 102° |
| 2026-05-04 02:28 | 32.76468 | -116.93404 | 5446 ft | 243 kts | 102° |
| 2026-05-04 02:29 | 32.76170 | -116.91459 | 5188 ft | 242 kts | 102° |
| 2026-05-04 02:29 | 32.75859 | -116.89483 | 5016 ft | 236 kts | 102° |
| 2026-05-04 02:29 | 32.75339 | -116.87680 | 4926 ft | 233 kts | 126° |
| 2026-05-04 02:29 | 32.74153 | -116.86446 | 4871 ft | 226 kts | 160° |
| 2026-05-04 02:30 | 32.72678 | -116.86171 | 4982 ft | 206 kts | 188° |
| 2026-05-04 02:30 | 32.71275 | -116.86362 | 5056 ft | 200 kts | 191° |
| 2026-05-04 02:30 | 32.69901 | -116.86569 | 5017 ft | 198 kts | 192° |
| 2026-05-04 02:30 | 32.68571 | -116.86916 | 4955 ft | 193 kts | 211° |
| 2026-05-04 02:31 | 32.67647 | -116.87996 | 4810 ft | 187 kts | 245° |
| 2026-05-04 02:31 | 32.67317 | -116.89459 | 4695 ft | 179 kts | 260° |
| 2026-05-04 02:31 | 32.67107 | -116.90897 | 4477 ft | 174 kts | 261° |
| 2026-05-04 02:31 | 32.67052 | -116.92238 | 4319 ft | 167 kts | 273° |
| 2026-05-04 02:32 | 32.67224 | -116.93587 | 4258 ft | 166 kts | 284° |
| 2026-05-04 02:32 | 32.67530 | -116.94891 | 4151 ft | 166 kts | 284° |
| 2026-05-04 02:32 | 32.67847 | -116.96203 | 3997 ft | 165 kts | 284° |
| 2026-05-04 02:32 | 32.68164 | -116.97516 | 3860 ft | 165 kts | 284° |
| 2026-05-04 02:33 | 32.68481 | -116.98827 | 3780 ft | 165 kts | 285° |
| 2026-05-04 02:33 | 32.68780 | -117.00060 | 3759 ft | 165 kts | 285° |
| 2026-05-04 02:33 | 32.69096 | -117.01367 | 3765 ft | 165 kts | 285° |
| 2026-05-04 02:33 | 32.69401 | -117.02627 | 3769 ft | 165 kts | 285° |
| 2026-05-04 02:34 | 32.69720 | -117.03945 | 3686 ft | 167 kts | 285° |
| 2026-05-04 02:34 | 32.70039 | -117.05263 | 3340 ft | 165 kts | 285° |
| 2026-05-04 02:34 | 32.70350 | -117.06549 | 2822 ft | 164 kts | 285° |
| 2026-05-04 02:34 | 32.70665 | -117.07854 | 2253 ft | 164 kts | 285° |
| 2026-05-04 02:35 | 32.70975 | -117.09131 | 1825 ft | 156 kts | 285° |
| 2026-05-04 02:35 | 32.71261 | -117.10311 | 1490 ft | 142 kts | 285° |
| 2026-05-04 02:35 | 32.71525 | -117.11399 | 1252 ft | 134 kts | 285° |
| 2026-05-04 02:35 | 32.71779 | -117.12451 | 1041 ft | 131 kts | 284° |
| 2026-05-04 02:36 | 32.71955 | -117.13154 | 955 ft | 135 kts | 283° |
| 2026-05-04 02:36 | 32.72173 | -117.14082 | 950 ft | 137 kts | 284° |
| 2026-05-04 02:36 | 32.72404 | -117.15094 | 740 ft | 145 kts | 286° |
| 2026-05-04 02:36 | 32.72630 | -117.16021 | 572 ft | 134 kts | 286° |
| 2026-05-04 02:37 | 32.72888 | -117.17104 | 226 ft | 135 kts | 286° |
| 2026-05-04 02:37 | 32.73167 | -117.18214 | 413 ft | 152 kts | 284° |
| 2026-05-04 02:37 | 32.73477 | -117.19505 | 1052 ft | 170 kts | 286° |
| 2026-05-04 02:37 | 32.73843 | -117.20897 | 1676 ft | 184 kts | 284° |
| 2026-05-04 02:38 | 32.74195 | -117.22392 | 1944 ft | 190 kts | 284° |
| 2026-05-04 02:38 | 32.74562 | -117.23944 | 2040 ft | 202 kts | 284° |
| 2026-05-04 02:38 | 32.74950 | -117.25571 | 2119 ft | 207 kts | 285° |
| 2026-05-04 02:38 | 32.75343 | -117.27218 | 2204 ft | 208 kts | 285° |
| 2026-05-04 02:39 | 32.75739 | -117.28869 | 2283 ft | 208 kts | 285° |
| 2026-05-04 02:39 | 32.76136 | -117.30528 | 2400 ft | 210 kts | 285° |
| 2026-05-04 02:39 | 32.76537 | -117.32202 | 2458 ft | 211 kts | 284° |
| 2026-05-04 02:39 | 32.76939 | -117.33877 | 2496 ft | 211 kts | 285° |
| 2026-05-04 02:40 | 32.77341 | -117.35558 | 2469 ft | 211 kts | 285° |
| 2026-05-04 02:40 | 32.77742 | -117.37233 | 2491 ft | 211 kts | 285° |
| 2026-05-04 02:40 | 32.78143 | -117.38911 | 2488 ft | 211 kts | 284° |
| 2026-05-04 02:40 | 32.78439 | -117.40544 | 2467 ft | 209 kts | 273° |
| 2026-05-04 02:41 | 32.78419 | -117.42133 | 2493 ft | 211 kts | 266° |
| 2026-05-04 02:41 | 32.78321 | -117.43874 | 2478 ft | 210 kts | 266° |
| 2026-05-04 02:41 | 32.78224 | -117.45587 | 2489 ft | 211 kts | 266° |
| 2026-05-04 02:41 | 32.78124 | -117.47324 | 2490 ft | 210 kts | 266° |
| 2026-05-04 02:42 | 32.78023 | -117.49055 | 2482 ft | 209 kts | 266° |
| 2026-05-04 02:42 | 32.77915 | -117.50785 | 2471 ft | 209 kts | 266° |
| 2026-05-04 02:42 | 32.77809 | -117.52517 | 2493 ft | 210 kts | 266° |
| 2026-05-04 02:42 | 32.77694 | -117.54246 | 2461 ft | 210 kts | 266° |
| 2026-05-04 02:43 | 32.77569 | -117.55977 | 2485 ft | 211 kts | 261° |
| 2026-05-04 02:43 | 32.76941 | -117.57521 | 2443 ft | 211 kts | 227° |
| 2026-05-04 02:43 | 32.75755 | -117.58572 | 2483 ft | 214 kts | 217° |
| 2026-05-04 02:43 | 32.74372 | -117.59221 | 2449 ft | 219 kts | 186° |
| 2026-05-04 02:44 | 32.72895 | -117.58844 | 2558 ft | 223 kts | 152° |
| 2026-05-04 02:44 | 32.71804 | -117.57522 | 2803 ft | 229 kts | 118° |
| 2026-05-04 02:44 | 32.71329 | -117.55705 | 2961 ft | 233 kts | 102° |
| 2026-05-04 02:44 | 32.71021 | -117.53815 | 3000 ft | 234 kts | 101° |
| 2026-05-04 02:45 | 32.70730 | -117.51937 | 2988 ft | 234 kts | 101° |
| 2026-05-04 02:45 | 32.70436 | -117.50039 | 2973 ft | 233 kts | 101° |
| 2026-05-04 02:45 | 32.70140 | -117.48151 | 2986 ft | 233 kts | 101° |
| 2026-05-04 02:45 | 32.69845 | -117.46259 | 2972 ft | 234 kts | 101° |
| 2026-05-04 02:46 | 32.69542 | -117.44365 | 2974 ft | 233 kts | 101° |
| 2026-05-04 02:46 | 32.69246 | -117.42476 | 2982 ft | 233 kts | 101° |
| 2026-05-04 02:46 | 32.68947 | -117.40582 | 2988 ft | 234 kts | 101° |
| 2026-05-04 02:46 | 32.68642 | -117.38685 | 2978 ft | 234 kts | 101° |
| 2026-05-04 02:47 | 32.68347 | -117.36790 | 2988 ft | 234 kts | 101° |
| 2026-05-04 02:47 | 32.68049 | -117.34890 | 2985 ft | 234 kts | 101° |
| 2026-05-04 02:47 | 32.67746 | -117.32999 | 2987 ft | 234 kts | 101° |
| 2026-05-04 02:47 | 32.67446 | -117.31121 | 2985 ft | 229 kts | 101° |
| 2026-05-04 02:48 | 32.67152 | -117.29264 | 2975 ft | 229 kts | 101° |
| 2026-05-04 02:48 | 32.66857 | -117.27431 | 2997 ft | 229 kts | 101° |
| 2026-05-04 02:48 | 32.66566 | -117.25582 | 3194 ft | 228 kts | 101° |
| 2026-05-04 02:48 | 32.66270 | -117.23716 | 3585 ft | 231 kts | 101° |
| 2026-05-04 02:49 | 32.65971 | -117.21833 | 3996 ft | 233 kts | 101° |
| 2026-05-04 02:49 | 32.65680 | -117.19941 | 4393 ft | 233 kts | 101° |
| 2026-05-04 02:49 | 32.65394 | -117.18039 | 4796 ft | 235 kts | 101° |
| 2026-05-04 02:49 | 32.65102 | -117.16108 | 5124 ft | 238 kts | 101° |
| 2026-05-04 02:50 | 32.64818 | -117.14169 | 5395 ft | 240 kts | 101° |
| 2026-05-04 02:50 | 32.64537 | -117.12215 | 5673 ft | 241 kts | 101° |
| 2026-05-04 02:50 | 32.64256 | -117.10248 | 5919 ft | 243 kts | 101° |
| 2026-05-04 02:50 | 32.63983 | -117.08285 | 6014 ft | 244 kts | 101° |
| 2026-05-04 02:51 | 32.63710 | -117.06301 | 6009 ft | 244 kts | 101° |
| 2026-05-04 02:51 | 32.63437 | -117.04314 | 5997 ft | 244 kts | 101° |
| 2026-05-04 02:51 | 32.63163 | -117.02325 | 5983 ft | 243 kts | 101° |
| 2026-05-04 02:51 | 32.62892 | -117.00350 | 5976 ft | 243 kts | 101° |
| 2026-05-04 02:52 | 32.62624 | -116.98368 | 5983 ft | 244 kts | 101° |
| 2026-05-04 02:52 | 32.62356 | -116.96381 | 5992 ft | 244 kts | 101° |
| 2026-05-04 02:52 | 32.62087 | -116.94392 | 5990 ft | 244 kts | 101° |
| 2026-05-04 02:52 | 32.61821 | -116.92414 | 5979 ft | 243 kts | 101° |
| 2026-05-04 02:53 | 32.61554 | -116.90437 | 5980 ft | 243 kts | 101° |
| 2026-05-04 02:53 | 32.61295 | -116.88455 | 5982 ft | 243 kts | 101° |
| 2026-05-04 02:53 | 32.61030 | -116.86474 | 5993 ft | 244 kts | 102° |
| 2026-05-04 02:53 | 32.60787 | -116.84490 | 5999 ft | 243 kts | 101° |
| 2026-05-04 02:54 | 32.60546 | -116.82493 | 5933 ft | 244 kts | 100° |
| 2026-05-04 02:54 | 32.60290 | -116.80496 | 5979 ft | 247 kts | 101° |
| 2026-05-04 02:54 | 32.60061 | -116.78486 | 5974 ft | 245 kts | 92° |
| 2026-05-04 02:54 | 32.60457 | -116.76548 | 5963 ft | 243 kts | 58° |
| 2026-05-04 02:55 | 32.63159 | -116.74431 | 5990 ft | 239 kts | 12° |
| 2026-05-04 02:55 | 32.64747 | -116.73936 | 5998 ft | 239 kts | 11° |
| 2026-05-04 02:55 | 32.66355 | -116.73444 | 5966 ft | 237 kts | 9° |
| 2026-05-04 02:56 | 32.67956 | -116.73418 | 5934 ft | 227 kts | 339° |
| 2026-05-04 02:56 | 32.69252 | -116.74354 | 5976 ft | 217 kts | 306° |
| 2026-05-04 02:56 | 32.70021 | -116.75877 | 6017 ft | 215 kts | 289° |
| 2026-05-04 02:56 | 32.70358 | -116.77589 | 6010 ft | 212 kts | 269° |
| 2026-05-04 02:57 | 32.70155 | -116.79304 | 5989 ft | 210 kts | 257° |
| 2026-05-04 02:57 | 32.69875 | -116.81012 | 5993 ft | 210 kts | 258° |
| 2026-05-04 02:57 | 32.69612 | -116.82714 | 5993 ft | 210 kts | 259° |
| 2026-05-04 02:57 | 32.69354 | -116.84421 | 5982 ft | 210 kts | 259° |
| 2026-05-04 02:58 | 32.69102 | -116.86117 | 6033 ft | 204 kts | 259° |
| 2026-05-04 02:58 | 32.68863 | -116.87730 | 5997 ft | 193 kts | 257° |
| 2026-05-04 02:58 | 32.68469 | -116.89226 | 5989 ft | 189 kts | 251° |
| 2026-05-04 02:58 | 32.68037 | -116.90706 | 5857 ft | 191 kts | 251° |
| 2026-05-04 02:59 | 32.67604 | -116.92215 | 5513 ft | 195 kts | 251° |
| 2026-05-04 02:59 | 32.67406 | -116.93798 | 5147 ft | 191 kts | 277° |
| 2026-05-04 02:59 | 32.67705 | -116.95309 | 4831 ft | 188 kts | 282° |
| 2026-05-04 02:59 | 32.68032 | -116.96802 | 4461 ft | 186 kts | 283° |
| 2026-05-04 03:00 | 32.68364 | -116.98258 | 4082 ft | 183 kts | 284° |
| 2026-05-04 03:00 | 32.68697 | -116.99685 | 3621 ft | 177 kts | 284° |
| 2026-05-04 03:00 | 32.69017 | -117.01069 | 3238 ft | 168 kts | 284° |
| 2026-05-04 03:00 | 32.69323 | -117.02384 | 2971 ft | 164 kts | 285° |
| 2026-05-04 03:01 | 32.69633 | -117.03669 | 2729 ft | 158 kts | 285° |
| 2026-05-04 03:01 | 32.69932 | -117.04903 | 2505 ft | 152 kts | 285° |
| 2026-05-04 03:01 | 32.70217 | -117.06080 | 2268 ft | 144 kts | 285° |
| 2026-05-04 03:01 | 32.70484 | -117.07178 | 2070 ft | 134 kts | 285° |
| 2026-05-04 03:02 | 32.70739 | -117.08223 | 1837 ft | 131 kts | 285° |
| 2026-05-04 03:02 | 32.70994 | -117.09263 | 1634 ft | 132 kts | 286° |
| 2026-05-04 03:02 | 32.71250 | -117.10313 | 1432 ft | 133 kts | 286° |
| 2026-05-04 03:02 | 32.71509 | -117.11365 | 1231 ft | 133 kts | 284° |
| 2026-05-04 03:03 | 32.71765 | -117.12415 | 1046 ft | 132 kts | 285° |
| 2026-05-04 03:03 | 32.72018 | -117.13459 | 850 ft | 132 kts | 283° |
| 2026-05-04 03:03 | 32.72278 | -117.14512 | 676 ft | 134 kts | 285° |
| 2026-05-04 03:03 | 32.72548 | -117.15563 | 484 ft | 131 kts | 282° |
| 2026-05-04 03:04 | 32.72774 | -117.16582 | 305 ft | 125 kts | 284° |
| 2026-05-04 03:04 | 32.73028 | -117.17639 | 124 ft | 133 kts | 283° |
| 2026-05-04 03:04 | 32.73274 | -117.18648 | 25 ft | 119 kts | 285° |
| 2026-05-04 03:04 | 32.73428 | -117.19264 | 23 ft | 28 kts | 287° |
| 2026-05-04 03:05 | 32.73448 | -117.19418 | 27 ft | 12 kts | 257° |
| 2026-05-04 03:05 | 32.73418 | -117.19512 | 28 ft | 0 kts | 248° |
| 2026-05-04 03:05 | 32.73416 | -117.19516 | 27 ft | 2 kts | 248° |
| 2026-05-04 03:06 | 32.73410 | -117.19535 | 26 ft | 5 kts | 246° |
| 2026-05-04 03:06 | 32.73404 | -117.19543 | 26 ft | 0 kts | 222° |
| 2026-05-04 03:06 | 32.73387 | -117.19547 | 29 ft | 7 kts | 168° |
| 2026-05-04 03:06 | 32.73370 | -117.19463 | 26 ft | 11 kts | 96° |
| 2026-05-04 03:07 | 32.73369 | -117.19457 | 26 ft | 2 kts | 96° |
| 2026-05-04 03:07 | 32.73365 | -117.19424 | 25 ft | 6 kts | 100° |
| 2026-05-04 03:07 | 32.73347 | -117.19351 | 24 ft | 14 kts | 106° |
| 2026-05-04 03:07 | 32.73301 | -117.19230 | 23 ft | 10 kts | 158° |
| 2026-05-04 03:08 | 32.73244 | -117.19245 | 22 ft | 1 kts | 204° |
| 2026-05-04 03:08 | 32.73223 | -117.19270 | 24 ft | 8 kts | 253° |
| 2026-05-04 03:08 | 32.73251 | -117.19292 | 23 ft | 8 kts | 18° |
| 2026-05-04 03:08 | 32.73295 | -117.19194 | 23 ft | 21 kts | 84° |
| 2026-05-04 03:09 | 32.73257 | -117.18993 | 26 ft | 27 kts | 101° |
| 2026-05-04 03:09 | 32.73203 | -117.18757 | 27 ft | 32 kts | 104° |
| 2026-05-04 03:09 | 32.73168 | -117.18608 | 27 ft | 1 kts | 106° |
| 2026-05-04 03:09 | 32.73158 | -117.18584 | 30 ft | 5 kts | 137° |
| 2026-05-04 03:10 | 32.73152 | -117.18551 | 27 ft | 10 kts | 97° |
| 2026-05-04 03:10 | 32.73117 | -117.18398 | 24 ft | 28 kts | 107° |
| 2026-05-04 03:10 | 32.73056 | -117.18143 | 20 ft | 34 kts | 106° |
| 2026-05-04 03:10 | 32.72999 | -117.17913 | 19 ft | 21 kts | 106° |
| 2026-05-04 03:11 | 32.72901 | -117.17829 | 19 ft | 16 kts | 221° |
| 2026-05-04 03:11 | 32.72913 | -117.17943 | 20 ft | 16 kts | 316° |
| 2026-05-04 03:11 | 32.72932 | -117.17960 | 20 ft | 1 kts | 326° |
| 2026-05-04 03:11 | 32.72934 | -117.17962 | 20 ft | 0 kts | 327° |